全部
Wudinna Airport (Wudinna, South Australia) WUD 天氣
|
Wudinna, South Australia (YWUD)
晴天
靜風 |
|
12 °C |
There is no TAF data available at WUD or any nearby airports.
WUD近期METAR歷史資料
| Date | Time (ACST) | Flight Rules | Wind Dir. | Speed | Type | Height AGL (ft) | Visibility | Temp (°C) | Temp (°F) | Dew Point (°C) | Dew Point (°F) | Rel. Humid. | Pressure | Density Altitude | Remarks |
|---|---|---|---|---|---|---|---|---|---|---|---|---|---|---|---|
| 05-五月 | 02:30 | n/a | 320° | 3 kt | Missing | 12° | 53° | 10° | 50° | 88% | 1023 mb | -339 ft | |||
| 05-五月 | 01:30 | n/a | 310° | 4 kt | Missing | 12° | 53° | 11° | 51° | 94% | 1023 mb | -339 ft | |||
| 05-五月 | 00:30 | n/a | 280° | 6 kt | Missing | 12° | 53° | 11° | 51° | 94% | 1023 mb | -339 ft | |||
| 04-五月 | 23:30 | n/a | 310° | 4 kt | Missing | 10° | 50° | 9° | 48° | 93% | 1023 mb | -579 ft | |||
| 04-五月 | 22:30 | n/a | Calm | Missing | 10° | 50° | 8° | 46° | 87% | 1023 mb | -579 ft | ||||
| 04-五月 | 21:30 | n/a | 290° | 1 kt | Missing | 11° | 51° | 10° | 50° | 94% | 1023 mb | -459 ft | |||
| 04-五月 | 20:30 | n/a | 250° | 7 kt | Missing | 12° | 53° | 11° | 51° | 94% | 1022 mb | -310 ft | |||
| 04-五月 | 19:30 | n/a | 250° | 5 kt | Missing | 13° | 55° | 11° | 51° | 88% | 1021 mb | -160 ft | |||
| 04-五月 | 18:30 | n/a | 190° | 10 kt | Missing | 14° | 57° | 12° | 53° | 88% | 1021 mb | -40 ft | |||
| 04-五月 | 17:30 | n/a | 250° | 13 kt | Missing | 14° | 57° | 12° | 53° | 88% | 1020 mb | -11 ft | |||
| 04-五月 | 16:30 | n/a | 230° | 14 kt | Missing | 17° | 62° | 11° | 51° | 68% | 1019 mb | 379 ft | |||
| 04-五月 | 15:30 | n/a | 250° | 14 kt | Missing | 18° | 64° | 11° | 51° | 64% | 1018 mb | 528 ft | |||
| 04-五月 | 14:30 | n/a | 250° | 13 kt | Missing | 19° | 66° | 10° | 50° | 56% | 1018 mb | 648 ft | |||
| 04-五月 | 13:30 | n/a | 260° | 15 kt | Missing | 19° | 66° | 10° | 50° | 56% | 1018 mb | 648 ft | |||
| 04-五月 | 12:30 | n/a | 270° | 9 kt | Missing | 18° | 64° | 12° | 53° | 68% | 1018 mb | 528 ft | |||
| 04-五月 | 11:30 | n/a | 260° | 12 kt | Missing | 14° | 57° | 12° | 53° | 88% | 1019 mb | 19 ft | |||
| 04-五月 | 10:30 | n/a | 290° | 10 kt | Missing | 17° | 62° | 12° | 53° | 72% | 1019 mb | 379 ft | |||
| 04-五月 | 09:30 | n/a | 290° | 13 kt | Missing | 14° | 57° | 12° | 53° | 88% | 1019 mb | 19 ft | |||
| 04-五月 | 08:30 | n/a | 310° | 11 kt | Missing | 13° | 55° | 11° | 51° | 88% | 1018 mb | -72 ft | |||
| 04-五月 | 07:30 | n/a | 320° | 9 kt | Missing | 11° | 51° | 10° | 50° | 94% | 1017 mb | -282 ft | |||
| 04-五月 | 06:30 | n/a | 300° | 11 kt | Missing | 12° | 53° | 10° | 50° | 88% | 1016 mb | -132 ft | |||
| 04-五月 | 05:30 | n/a | 340° | 10 kt | Missing | 11° | 51° | 9° | 48° | 87% | 1016 mb | -252 ft | |||
| 04-五月 | 04:30 | n/a | 330° | 9 kt | Missing | 11° | 51° | 9° | 48° | 87% | 1015 mb | -223 ft | |||
| 04-五月 | 03:30 | n/a | 330° | 9 kt | Missing | 11° | 51° | 9° | 48° | 87% | 1015 mb | -223 ft |
登入
| 您的瀏覽器不支援. 升級您的瀏覽器 |
